createdAt,value
2018-12-23T00:01:02.803Z,97213.85
2018-12-23T00:03:33.521Z,97224.27
2018-12-23T00:06:04.244Z,97226.97
2018-12-23T00:08:34.948Z,97214.87
2018-12-23T00:11:05.790Z,97243.44
2018-12-23T00:13:36.533Z,97258.73
2018-12-23T00:16:07.276Z,97231.67
2018-12-23T00:18:38.061Z,97312.89
2018-12-23T00:21:08.792Z,97255.81
2018-12-23T00:23:39.501Z,97236.30
2018-12-23T00:26:10.837Z,97233.06
2018-12-23T00:28:41.838Z,97256.38
2018-12-23T00:31:12.595Z,97149.83
2018-12-23T00:33:43.439Z,97260.20
2018-12-23T00:36:14.198Z,97240.72
2018-12-23T00:38:44.915Z,97249.07
2018-12-23T00:41:15.634Z,97269.29
2018-12-23T00:43:46.366Z,97229.59
2018-12-23T00:46:17.111Z,97261.77
2018-12-23T00:48:47.824Z,97256.69
2018-12-23T00:51:18.545Z,97295.78
2018-12-23T00:53:49.389Z,97242.91
2018-12-23T00:56:20.137Z,97259.78
2018-12-23T00:58:50.932Z,97265.37
2018-12-23T01:01:21.714Z,97264.54
2018-12-23T01:03:52.416Z,97282.95
2018-12-23T01:06:23.314Z,97290.58
2018-12-23T01:08:54.057Z,97277.50
2018-12-23T01:11:24.752Z,97274.52
2018-12-23T01:14:05.666Z,97300.19
2018-12-23T01:16:36.453Z,97299.50
2018-12-23T01:19:07.152Z,97300.32
2018-12-23T01:21:37.856Z,97276.08
2018-12-23T01:24:08.541Z,97301.61
2018-12-23T01:26:39.242Z,97284.02
2018-12-23T01:29:10.440Z,97280.47
2018-12-23T01:31:41.328Z,97286.88
2018-12-23T01:34:12.120Z,97292.49
2018-12-23T01:36:42.828Z,97315.78
2018-12-23T01:39:13.513Z,97290.58
2018-12-23T01:41:44.297Z,97342.05
2018-12-23T01:44:15.069Z,97296.38
2018-12-23T01:46:45.870Z,97326.45
2018-12-23T01:49:16.834Z,97325.03
2018-12-23T01:51:47.626Z,97353.58
2018-12-23T01:54:18.392Z,97313.14
2018-12-23T01:56:49.117Z,97321.86
2018-12-23T01:59:19.931Z,97327.89
2018-12-23T02:01:50.631Z,97312.91
2018-12-23T02:04:21.326Z,97317.90
2018-12-23T02:06:52.287Z,97318.63
2018-12-23T02:09:23.085Z,97297.58
2018-12-23T02:11:53.794Z,97215.98
2018-12-23T02:14:24.473Z,97307.32
2018-12-23T02:16:55.253Z,97301.69
2018-12-23T02:19:26.020Z,97318.83
2018-12-23T02:21:56.814Z,97322.06
2018-12-23T02:24:27.495Z,97338.84
2018-12-23T02:26:58.204Z,97320.97
2018-12-23T02:29:28.980Z,97328.48
2018-12-23T02:31:59.668Z,97355.69
2018-12-23T02:34:30.353Z,97235.14
2018-12-23T02:37:01.157Z,97320.14
2018-12-23T02:39:31.885Z,97316.22
2018-12-23T02:42:02.576Z,97304.80
2018-12-23T02:44:33.333Z,97298.39
2018-12-23T02:47:04.037Z,97356.31
2018-12-23T02:49:34.717Z,97340.11
2018-12-23T02:52:05.450Z,97338.61
2018-12-23T02:54:36.140Z,97307.91
2018-12-23T02:57:06.937Z,97300.08
2018-12-23T02:59:37.648Z,97306.39
2018-12-23T03:02:08.357Z,97318.50
2018-12-23T03:04:39.228Z,97322.56
2018-12-23T03:07:11.159Z,97312.91
2018-12-23T03:09:42.200Z,97345.98
2018-12-23T03:12:12.898Z,97334.53
2018-12-23T03:14:43.657Z,97361.28
2018-12-23T03:17:14.380Z,97305.66
2018-12-23T03:19:45.192Z,97307.19
2018-12-23T03:22:17.001Z,97310.41
2018-12-23T03:24:47.692Z,97333.23
2018-12-23T03:27:18.404Z,97328.33
2018-12-23T03:29:49.122Z,97351.80
2018-12-23T03:32:19.846Z,97332.69
2018-12-23T03:34:50.653Z,97352.77
2018-12-23T03:37:21.409Z,97319.25
2018-12-23T03:39:52.132Z,97290.23
2018-12-23T03:42:22.848Z,97333.27
2018-12-23T03:44:53.584Z,97330.27
2018-12-23T03:47:24.374Z,97325.99
2018-12-23T03:49:55.081Z,97365.25
2018-12-23T03:52:25.868Z,97372.87
2018-12-23T03:54:56.585Z,97341.56
2018-12-23T03:57:27.358Z,97336.94
2018-12-23T03:59:58.070Z,97322.78
2018-12-23T04:02:28.792Z,97304.87
2018-12-23T04:04:59.508Z,97349.31
2018-12-23T04:07:30.229Z,97317.81
2018-12-23T04:10:00.950Z,97328.95
2018-12-23T04:12:31.665Z,97348.00
2018-12-23T04:15:02.397Z,97330.07
2018-12-23T04:17:33.696Z,97338.97
2018-12-23T04:20:04.620Z,97302.20
2018-12-23T04:22:35.343Z,97325.63
2018-12-23T04:25:06.345Z,97313.66
2018-12-23T04:27:37.043Z,97330.05
2018-12-23T04:30:07.952Z,97329.91
2018-12-23T04:32:38.672Z,97346.80
2018-12-23T04:35:09.396Z,97339.91
2018-12-23T04:37:40.213Z,97329.81
2018-12-23T04:40:11.664Z,97344.66
2018-12-23T04:42:42.439Z,97339.54
2018-12-23T04:45:13.162Z,97346.33
2018-12-23T04:47:43.863Z,97338.95
2018-12-23T04:50:14.612Z,97349.41
2018-12-23T04:52:45.349Z,97367.94
2018-12-23T04:55:16.148Z,97348.95
2018-12-23T04:57:46.857Z,97354.75
2018-12-23T05:00:17.577Z,97340.84
2018-12-23T05:02:48.331Z,97341.59
2018-12-23T05:05:19.045Z,97364.14
2018-12-23T05:07:49.760Z,97563.56
2018-12-23T05:10:20.522Z,97324.58
2018-12-23T05:12:51.229Z,97321.01
2018-12-23T05:15:21.969Z,97331.70
2018-12-23T05:17:52.685Z,97340.74
2018-12-23T05:20:23.436Z,97324.08
2018-12-23T05:22:54.156Z,97303.39
2018-12-23T05:25:24.893Z,97365.02
2018-12-23T05:27:55.625Z,97336.45
2018-12-23T05:30:26.374Z,97349.63
2018-12-23T05:32:57.080Z,97356.34
2018-12-23T05:35:28.116Z,97356.23
2018-12-23T05:37:58.837Z,97355.59
2018-12-23T05:40:29.567Z,97348.70
2018-12-23T05:43:00.288Z,97351.80
2018-12-23T05:45:31.109Z,97364.02
2018-12-23T05:48:08.430Z,97369.25
2018-12-23T05:50:39.148Z,97351.69
2018-12-23T05:53:10.729Z,97360.83
2018-12-23T05:55:40.046Z,97356.06
2018-12-23T05:58:10.767Z,97349.64
2018-12-23T06:00:41.572Z,97367.84
2018-12-23T06:03:12.287Z,97361.65
2018-12-23T06:05:43.012Z,97358.68
2018-12-23T06:08:13.729Z,97352.61
2018-12-23T06:10:44.440Z,97354.64
2018-12-23T06:13:15.163Z,97350.95
2018-12-23T06:15:45.889Z,97356.42
2018-12-23T06:18:16.604Z,97366.75
2018-12-23T06:20:47.331Z,97253.06
2018-12-23T06:23:18.041Z,97361.66
2018-12-23T06:25:48.770Z,97369.75
2018-12-23T06:28:19.488Z,97381.27
2018-12-23T06:30:50.195Z,97358.10
2018-12-23T06:33:20.937Z,97375.67
2018-12-23T06:35:51.664Z,97351.33
2018-12-23T06:38:22.401Z,97361.40
2018-12-23T06:40:53.113Z,97363.55
2018-12-23T06:43:23.855Z,97396.02
2018-12-23T06:45:54.581Z,97365.34
2018-12-23T06:48:25.305Z,97378.29
2018-12-23T06:50:56.019Z,97370.45
2018-12-23T06:53:26.845Z,97358.58
2018-12-23T06:55:57.575Z,97369.26
2018-12-23T06:58:28.299Z,97409.13
2018-12-23T07:00:58.999Z,97392.42
2018-12-23T07:03:29.720Z,97400.27
2018-12-23T07:06:00.415Z,97372.12
2018-12-23T07:08:31.129Z,97388.03
2018-12-23T07:11:01.966Z,97401.47
2018-12-23T07:13:32.673Z,97380.66
2018-12-23T07:16:03.386Z,97380.44
2018-12-23T07:18:34.118Z,97375.67
2018-12-23T07:21:04.912Z,97401.36
2018-12-23T07:23:35.656Z,97379.02
2018-12-23T07:26:06.377Z,97408.48
2018-12-23T07:28:37.083Z,97385.31
2018-12-23T07:31:07.805Z,97394.35
2018-12-23T07:33:38.519Z,97379.60
2018-12-23T07:36:09.246Z,97380.08
2018-12-23T07:38:40.003Z,97384.47
2018-12-23T07:41:10.711Z,97397.91
2018-12-23T07:43:41.450Z,97399.80
2018-12-23T07:46:12.290Z,97401.58
2018-12-23T07:48:43.146Z,97397.91
2018-12-23T07:51:13.859Z,97399.69
2018-12-23T07:53:44.596Z,97405.06
2018-12-23T07:56:15.324Z,97413.12
2018-12-23T07:58:46.048Z,97403.63
2018-12-23T08:01:16.759Z,97395.66
2018-12-23T08:03:47.489Z,97401.36
2018-12-23T08:06:18.187Z,97394.81
2018-12-23T08:08:48.906Z,97409.95
2018-12-23T08:11:19.652Z,97391.95
2018-12-23T08:13:50.453Z,97398.63
2018-12-23T08:16:21.203Z,97391.63
2018-12-23T08:18:51.927Z,97393.03
2018-12-23T08:21:22.729Z,97408.89
2018-12-23T08:23:53.448Z,97388.28
2018-12-23T08:26:24.157Z,97386.63
2018-12-23T08:28:54.892Z,97375.34
2018-12-23T08:31:25.609Z,97398.66
2018-12-23T08:33:56.335Z,97397.92
2018-12-23T08:36:27.057Z,97406.48
2018-12-23T08:38:57.787Z,97383.44
2018-12-23T08:41:28.495Z,97399.73
2018-12-23T08:43:59.229Z,97429.34
2018-12-23T08:46:29.949Z,97390.33
2018-12-23T08:49:00.673Z,97408.89
2018-12-23T08:51:31.394Z,97284.19
2018-12-23T08:54:02.213Z,97416.25
2018-12-23T08:56:32.925Z,97391.77
2018-12-23T08:59:03.666Z,97397.00
2018-12-23T09:01:34.408Z,97405.20
2018-12-23T09:04:05.325Z,97389.82
2018-12-23T09:06:36.043Z,97384.96
2018-12-23T09:09:07.564Z,97405.19
2018-12-23T09:11:42.788Z,97421.36
2018-12-23T09:14:10.959Z,97393.42
2018-12-23T09:16:41.669Z,97407.67
2018-12-23T09:19:12.380Z,97395.08
2018-12-23T09:21:43.098Z,97368.22
2018-12-23T09:24:13.819Z,97365.25
2018-12-23T09:26:44.527Z,97366.64
2018-12-23T09:29:15.255Z,97376.02
2018-12-23T09:31:45.964Z,97385.91
2018-12-23T09:34:16.673Z,97377.80
2018-12-23T09:36:47.840Z,97383.98
2018-12-23T09:39:18.729Z,97392.80
2018-12-23T09:41:49.423Z,97385.77
2018-12-23T09:44:20.156Z,97354.02
2018-12-23T09:46:50.872Z,97371.75
2018-12-23T09:49:21.616Z,97357.80
2018-12-23T09:51:52.419Z,97383.16
2018-12-23T09:54:23.208Z,97375.16
2018-12-23T09:56:53.953Z,97357.42
2018-12-23T09:59:24.671Z,97333.63
2018-12-23T10:01:55.393Z,97346.97
2018-12-23T10:04:26.128Z,97339.73
2018-12-23T10:06:56.876Z,97335.94
2018-12-23T10:09:27.611Z,97331.42
2018-12-23T10:11:58.319Z,97329.16
2018-12-23T10:14:29.084Z,97348.63
2018-12-23T10:16:59.786Z,97320.41
2018-12-23T10:19:30.512Z,97319.48
2018-12-23T10:22:01.275Z,97341.97
2018-12-23T10:24:32.180Z,97330.81
2018-12-23T10:27:02.906Z,97329.48
2018-12-23T10:29:33.635Z,97333.06
2018-12-23T10:32:04.442Z,97310.20
2018-12-23T10:34:35.156Z,97310.91
2018-12-23T10:37:05.875Z,97323.98
2018-12-23T10:39:36.590Z,97341.97
2018-12-23T10:42:07.312Z,97288.93
2018-12-23T10:44:38.123Z,97303.66
2018-12-23T10:47:08.933Z,97427.92
2018-12-23T10:49:39.648Z,97292.38
2018-12-23T10:52:10.609Z,97296.63
2018-12-23T10:54:41.311Z,97292.38
2018-12-23T10:57:12.962Z,97289.41
2018-12-23T10:59:43.671Z,97286.97
2018-12-23T11:02:14.384Z,97259.25
2018-12-23T11:04:45.103Z,97271.09
2018-12-23T11:07:15.828Z,97273.23
2018-12-23T11:09:46.624Z,97270.02
2018-12-23T11:12:17.330Z,97281.56
2018-12-23T11:14:48.081Z,97252.52
2018-12-23T11:17:18.796Z,97237.17
2018-12-23T11:19:49.548Z,97244.75
2018-12-23T11:22:20.320Z,97244.75
2018-12-23T11:24:51.119Z,97249.63
2018-12-23T11:27:21.859Z,97243.23
2018-12-23T11:29:52.577Z,97197.61
2018-12-23T11:32:23.301Z,97229.19
2018-12-23T11:34:54.027Z,97225.83
2018-12-23T11:37:24.857Z,97224.39
2018-12-23T11:39:55.599Z,97230.66
2018-12-23T11:42:26.313Z,97195.08
2018-12-23T11:44:57.032Z,97206.78
2018-12-23T11:47:27.760Z,97214.36
2018-12-23T11:49:58.486Z,97181.27
2018-12-23T11:52:29.206Z,97182.22
2018-12-23T11:55:00.852Z,97177.82
2018-12-23T11:57:31.568Z,97175.08
2018-12-23T12:00:02.279Z,97170.80
2018-12-23T12:02:33.015Z,97159.64
2018-12-23T12:05:03.735Z,97177.14
2018-12-23T12:07:34.467Z,97170.23
2018-12-23T12:10:06.016Z,97177.28
2018-12-23T12:12:36.996Z,97156.81
2018-12-23T12:15:08.850Z,97133.25
2018-12-23T12:17:39.559Z,97138.84
2018-12-23T12:20:10.366Z,97124.20
2018-12-23T12:22:41.350Z,97155.45
2018-12-23T12:25:12.213Z,97121.34
2018-12-23T12:27:42.950Z,97108.95
2018-12-23T12:30:13.695Z,97136.58
2018-12-23T12:32:44.415Z,97130.74
2018-12-23T12:35:15.150Z,97113.02
2018-12-23T12:37:45.873Z,97090.22
2018-12-23T12:40:16.604Z,97129.56
2018-12-23T12:42:47.329Z,97115.33
2018-12-23T12:45:18.054Z,97100.44
2018-12-23T12:47:48.779Z,97096.80
2018-12-23T12:50:19.525Z,97094.50
2018-12-23T12:52:50.277Z,97113.28
2018-12-23T12:55:21.034Z,97085.71
2018-12-23T12:57:51.763Z,97108.75
2018-12-23T13:00:22.496Z,97068.06
2018-12-23T13:02:53.245Z,97076.36
2018-12-23T13:05:23.975Z,97089.94
2018-12-23T13:07:54.690Z,97088.36
2018-12-23T13:10:25.425Z,97062.92
2018-12-23T13:12:56.145Z,97059.90
2018-12-23T13:15:26.886Z,97077.27
2018-12-23T13:17:57.607Z,97069.70
2018-12-23T13:20:28.398Z,97061.69
2018-12-23T13:22:59.234Z,97074.61
2018-12-23T13:25:29.975Z,96998.96
2018-12-23T13:28:00.710Z,96994.73
2018-12-23T13:30:31.588Z,97054.84
2018-12-23T13:33:02.307Z,97028.77
2018-12-23T13:35:33.032Z,97042.77
2018-12-23T13:38:03.768Z,97010.16
2018-12-23T13:43:22.619Z,97025.44
2018-12-23T13:46:12.378Z,97099.38
2018-12-23T13:49:03.715Z,96960.02
2018-12-23T13:52:55.825Z,97003.63
2018-12-23T13:55:47.092Z,96993.36
2018-12-23T13:58:56.479Z,96988.32
2018-12-23T14:01:48.948Z,96986.84
2018-12-23T14:05:13.674Z,97065.86
2018-12-23T14:08:04.753Z,96982.13
2018-12-23T14:10:52.118Z,96987.04
2018-12-23T14:13:22.841Z,96965.00
2018-12-23T14:15:53.568Z,96965.23
2018-12-23T14:18:24.283Z,96977.41
2018-12-23T14:20:54.993Z,96944.89
2018-12-23T14:23:25.707Z,96943.69
2018-12-23T14:25:56.428Z,96958.26
2018-12-23T14:28:27.147Z,96939.36
2018-12-23T14:30:57.859Z,96932.70
2018-12-23T14:33:28.575Z,96927.88
2018-12-23T14:35:59.328Z,96841.23
2018-12-23T14:38:30.039Z,96927.41
2018-12-23T14:41:00.756Z,96882.64
2018-12-23T14:43:31.548Z,96918.48
2018-12-23T14:46:02.259Z,96924.32
2018-12-23T14:48:32.988Z,96904.93
2018-12-23T14:51:03.693Z,96893.09
2018-12-23T14:53:34.428Z,96874.59
2018-12-23T14:56:05.330Z,96876.58
2018-12-23T14:58:37.783Z,96861.01
2018-12-23T15:01:09.321Z,96867.23
2018-12-23T15:03:40.040Z,96837.91
2018-12-23T15:06:10.773Z,96857.25
2018-12-23T15:08:41.483Z,96846.97
2018-12-23T15:11:12.188Z,96833.94
2018-12-23T15:13:42.901Z,96831.14
2018-12-23T15:16:14.644Z,96798.66
2018-12-23T15:18:46.820Z,96790.44
2018-12-23T15:21:17.557Z,96792.37
2018-12-23T15:23:48.280Z,96798.16
2018-12-23T15:26:19.037Z,96804.41
2018-12-23T15:28:49.778Z,96804.00
2018-12-23T15:31:20.503Z,96792.00
2018-12-23T15:33:51.261Z,96795.29
2018-12-23T15:36:23.355Z,96765.45
2018-12-23T15:38:54.062Z,96758.23
2018-12-23T15:41:25.695Z,96747.92
2018-12-23T15:43:56.416Z,96756.63
2018-12-23T15:46:27.135Z,96745.98
2018-12-23T15:48:58.040Z,96736.83
2018-12-23T15:51:28.743Z,96725.59
2018-12-23T15:53:59.455Z,96736.19
2018-12-23T15:56:30.163Z,96717.63
2018-12-23T15:59:00.929Z,96738.73
2018-12-23T16:01:31.737Z,96745.78
2018-12-23T16:04:02.518Z,96717.40
2018-12-23T16:06:33.224Z,96706.56
2018-12-23T16:09:05.127Z,96717.12
2018-12-23T16:11:35.836Z,96697.48
2018-12-23T16:14:06.555Z,96697.19
2018-12-23T16:16:37.265Z,96891.20
2018-12-23T16:19:09.511Z,96691.61
2018-12-23T16:21:40.237Z,96667.89
2018-12-23T16:24:11.016Z,96669.27
2018-12-23T16:26:41.851Z,96657.97
2018-12-23T16:29:12.563Z,96684.72
2018-12-23T16:31:43.276Z,96676.49
2018-12-23T16:34:14.076Z,96672.95
2018-12-23T16:36:44.794Z,96652.55
2018-12-23T16:39:15.507Z,96634.73
2018-12-23T16:41:46.309Z,96660.95
2018-12-23T16:44:17.102Z,96650.69
2018-12-23T16:46:47.809Z,96666.43
2018-12-23T16:49:18.533Z,96634.95
2018-12-23T16:51:49.249Z,96616.84
2018-12-23T16:54:19.983Z,96632.05
2018-12-23T16:56:50.696Z,96637.40
2018-12-23T16:59:21.533Z,96605.08
2018-12-23T17:01:52.271Z,96605.08
2018-12-23T17:04:25.919Z,96596.14
2018-12-23T17:06:56.619Z,96618.22
2018-12-23T17:09:27.353Z,96570.54
2018-12-23T17:11:58.061Z,96626.41
2018-12-23T17:14:28.859Z,96595.58
2018-12-23T17:16:59.563Z,96593.03
2018-12-23T17:19:30.296Z,96578.94
2018-12-23T17:22:01.093Z,96556.37
2018-12-23T17:24:31.825Z,96560.30
2018-12-23T17:27:02.519Z,96582.16
2018-12-23T17:29:33.236Z,96541.52
2018-12-23T17:32:03.949Z,96567.58
2018-12-23T17:34:34.688Z,96571.02
2018-12-23T17:37:05.500Z,96555.33
2018-12-23T17:39:36.229Z,96530.57
2018-12-23T17:42:06.938Z,96528.62
2018-12-23T17:44:37.661Z,96533.59
2018-12-23T17:47:09.667Z,96543.91
2018-12-23T17:49:40.393Z,96498.72
2018-12-23T17:52:11.146Z,96551.03
2018-12-23T17:54:41.866Z,96515.58
2018-12-23T17:57:12.563Z,96529.05
2018-12-23T17:59:43.296Z,96520.59
2018-12-23T18:02:14.109Z,96531.93
2018-12-23T18:04:45.000Z,96531.67
2018-12-23T18:07:15.723Z,96534.16
2018-12-23T18:09:46.440Z,96486.86
2018-12-23T18:12:17.226Z,96484.47
2018-12-23T18:14:47.917Z,96504.48
2018-12-23T18:17:18.717Z,96508.73
2018-12-23T18:19:49.451Z,96495.09
2018-12-23T18:22:20.214Z,96511.91
2018-12-23T18:24:51.207Z,96528.69
2018-12-23T18:27:21.946Z,96494.20
2018-12-23T18:29:52.667Z,96502.87
2018-12-23T18:32:23.392Z,96489.93
2018-12-23T18:34:54.131Z,96486.02
2018-12-23T18:37:24.842Z,96507.34
2018-12-23T18:39:55.552Z,96494.36
2018-12-23T18:42:26.281Z,96500.28
2018-12-23T18:44:57.016Z,96494.84
2018-12-23T18:47:27.744Z,96468.91
2018-12-23T18:49:58.478Z,96502.22
2018-12-23T18:52:29.283Z,96482.61
2018-12-23T18:55:00.091Z,96481.48
2018-12-23T18:57:37.479Z,96469.02
2018-12-23T19:00:10.197Z,96486.39
2018-12-23T19:02:48.900Z,96489.55
2018-12-23T19:05:19.712Z,96481.03
2018-12-23T19:07:55.264Z,96495.89
2018-12-23T19:16:58.318Z,96421.69
2018-12-23T19:20:14.545Z,96420.28
2018-12-23T19:23:36.478Z,96412.70
2018-12-23T19:27:03.341Z,96418.36
2018-12-23T19:30:04.150Z,96420.64
2018-12-23T19:33:17.882Z,96421.71
2018-12-23T19:37:01.369Z,96425.03
2018-12-23T19:40:40.497Z,96421.44
2018-12-23T19:43:57.441Z,96416.23
2018-12-23T19:47:35.555Z,96406.44
2018-12-23T19:51:13.243Z,96402.36
2018-12-23T19:55:01.820Z,96399.95
2018-12-23T19:58:26.266Z,96395.93
2018-12-23T20:01:22.659Z,96395.67
2018-12-23T20:04:34.721Z,96395.34
2018-12-23T20:08:16.413Z,96405.76
2018-12-23T20:11:35.277Z,96405.61
2018-12-23T20:14:56.491Z,96398.07
2018-12-23T20:18:46.352Z,96388.06
2018-12-23T20:21:48.246Z,96389.22
2018-12-23T20:25:07.098Z,96376.91
2018-12-23T20:28:21.442Z,96376.27
2018-12-23T20:31:49.728Z,96368.23
2018-12-23T20:35:43.450Z,96359.23
2018-12-23T20:39:02.174Z,96361.52
2018-12-23T20:42:30.917Z,96360.36
2018-12-23T20:46:26.631Z,96362.01
2018-12-23T20:49:48.207Z,96362.19
2018-12-23T20:53:10.289Z,96368.57
2018-12-23T20:57:07.079Z,96362.50
2018-12-23T21:00:37.637Z,96361.52
2018-12-23T21:04:01.005Z,96360.88
2018-12-23T21:07:41.412Z,96362.84
2018-12-23T21:11:21.639Z,96357.92
2018-12-23T21:14:58.514Z,96345.95
2018-12-23T21:18:13.938Z,96327.55
2018-12-23T21:21:44.533Z,96350.05
2018-12-23T21:25:23.425Z,96346.44
2018-12-23T21:28:59.334Z,96342.50
2018-12-23T21:32:05.987Z,96328.70
2018-12-23T21:35:58.141Z,96313.61
2018-12-23T21:39:53.655Z,96317.22
2018-12-23T21:43:33.092Z,96315.91
2018-12-23T21:46:58.939Z,96302.78
2018-12-23T21:50:22.504Z,96295.53
2018-12-23T21:54:14.027Z,96304.59
2018-12-23T21:57:41.167Z,96293.25
2018-12-23T22:01:03.353Z,96291.11
2018-12-23T22:04:54.919Z,96290.78
2018-12-23T22:08:45.875Z,96301.78
2018-12-23T22:11:34.417Z,96312.96
2018-12-23T22:14:06.268Z,96308.36
2018-12-23T22:16:38.067Z,96291.44
2018-12-23T22:19:10.185Z,96286.35
2018-12-23T22:21:42.061Z,96278.78
2018-12-23T22:24:14.618Z,96282.25
2018-12-23T22:26:46.759Z,96280.41
2018-12-23T22:29:18.635Z,96276.00
2018-12-23T22:31:50.433Z,96276.78
2018-12-23T22:34:22.322Z,96289.61
2018-12-23T22:36:54.125Z,96303.42
2018-12-23T22:39:25.977Z,96279.61
2018-12-23T22:41:57.776Z,96264.99
2018-12-23T22:44:29.553Z,96257.94
2018-12-23T22:47:01.347Z,96245.77
2018-12-23T22:49:33.139Z,96243.63
2018-12-23T22:52:04.930Z,96239.03
2018-12-23T22:54:36.995Z,96258.41
2018-12-23T22:57:09.357Z,96237.06
2018-12-23T22:59:41.239Z,96230.19
2018-12-23T23:02:13.099Z,96249.22
2018-12-23T23:04:44.890Z,96250.21
2018-12-23T23:07:16.795Z,96228.84
2018-12-23T23:09:48.913Z,96239.68
2018-12-23T23:12:23.849Z,96216.05
2018-12-23T23:14:55.706Z,96218.85
2018-12-23T23:17:27.674Z,96199.30
2018-12-23T23:19:59.889Z,96203.89
2018-12-23T23:22:31.767Z,96196.03
2018-12-23T23:25:03.621Z,96195.34
2018-12-23T23:27:35.671Z,96185.16
2018-12-23T23:30:07.795Z,96191.41
2018-12-23T23:32:39.738Z,96196.67
2018-12-23T23:35:11.597Z,96190.92
2018-12-23T23:37:43.468Z,96198.12
2018-12-23T23:40:15.324Z,96201.09
2018-12-23T23:42:47.265Z,96175.00
2018-12-23T23:45:19.039Z,96166.10
2018-12-23T23:47:50.996Z,96167.12
2018-12-23T23:50:23.598Z,96154.82
2018-12-23T23:52:55.445Z,96147.76
2018-12-23T23:55:27.376Z,96149.55
2018-12-23T23:57:59.169Z,96133.11
